sensor_id;sensor_type;location;lat;lon;timestamp;temperature;humidity
38265;DHT22;24062;47.480;8.768;2023-08-31T00:00:08;23.50;59.50
38265;DHT22;24062;47.480;8.768;2023-08-31T00:02:35;23.50;59.40
38265;DHT22;24062;47.480;8.768;2023-08-31T00:05:03;23.50;59.50
38265;DHT22;24062;47.480;8.768;2023-08-31T00:07:30;23.50;59.60
38265;DHT22;24062;47.480;8.768;2023-08-31T00:09:57;23.40;59.50
38265;DHT22;24062;47.480;8.768;2023-08-31T00:12:26;23.40;59.50
38265;DHT22;24062;47.480;8.768;2023-08-31T00:14:54;23.40;59.50
38265;DHT22;24062;47.480;8.768;2023-08-31T00:17:20;23.40;59.60
38265;DHT22;24062;47.480;8.768;2023-08-31T00:19:48;23.40;59.50
38265;DHT22;24062;47.480;8.768;2023-08-31T00:22:15;23.40;59.60
38265;DHT22;24062;47.480;8.768;2023-08-31T00:24:42;23.40;59.60
38265;DHT22;24062;47.480;8.768;2023-08-31T00:27:09;23.40;59.60
38265;DHT22;24062;47.480;8.768;2023-08-31T00:29:42;23.40;59.70
38265;DHT22;24062;47.480;8.768;2023-08-31T00:32:11;23.40;59.70
38265;DHT22;24062;47.480;8.768;2023-08-31T00:34:39;23.40;59.70
38265;DHT22;24062;47.480;8.768;2023-08-31T00:37:06;23.40;59.80
38265;DHT22;24062;47.480;8.768;2023-08-31T00:39:34;23.30;59.70
38265;DHT22;24062;47.480;8.768;2023-08-31T00:42:01;23.30;59.70
38265;DHT22;24062;47.480;8.768;2023-08-31T00:44:28;23.30;59.70
38265;DHT22;24062;47.480;8.768;2023-08-31T00:46:57;23.30;59.70
38265;DHT22;24062;47.480;8.768;2023-08-31T00:49:24;23.30;59.80
38265;DHT22;24062;47.480;8.768;2023-08-31T00:51:51;23.30;59.80
38265;DHT22;24062;47.480;8.768;2023-08-31T00:54:19;23.20;59.80
38265;DHT22;24062;47.480;8.768;2023-08-31T00:56:46;23.30;59.80
38265;DHT22;24062;47.480;8.768;2023-08-31T00:59:18;23.30;59.80
38265;DHT22;24062;47.480;8.768;2023-08-31T01:01:51;23.30;59.80
38265;DHT22;24062;47.480;8.768;2023-08-31T01:04:32;23.30;59.80
38265;DHT22;24062;47.480;8.768;2023-08-31T01:07:08;23.20;59.80
38265;DHT22;24062;47.480;8.768;2023-08-31T01:09:42;23.20;59.80
38265;DHT22;24062;47.480;8.768;2023-08-31T01:12:12;23.20;59.80
38265;DHT22;24062;47.480;8.768;2023-08-31T01:14:44;23.20;59.90
38265;DHT22;24062;47.480;8.768;2023-08-31T01:17:14;23.20;59.80
38265;DHT22;24062;47.480;8.768;2023-08-31T01:19:48;23.20;59.90
38265;DHT22;24062;47.480;8.768;2023-08-31T01:22:25;23.20;59.80
38265;DHT22;24062;47.480;8.768;2023-08-31T01:24:58;23.20;59.90
38265;DHT22;24062;47.480;8.768;2023-08-31T01:27:29;23.20;60.00
38265;DHT22;24062;47.480;8.768;2023-08-31T01:29:57;23.20;59.90
38265;DHT22;24062;47.480;8.768;2023-08-31T01:32:24;23.20;60.00
38265;DHT22;24062;47.480;8.768;2023-08-31T01:34:52;23.10;59.90
38265;DHT22;24062;47.480;8.768;2023-08-31T01:37:28;23.10;60.00
38265;DHT22;24062;47.480;8.768;2023-08-31T01:40:01;23.10;59.90
38265;DHT22;24062;47.480;8.768;2023-08-31T01:42:29;23.20;60.10
38265;DHT22;24062;47.480;8.768;2023-08-31T01:44:59;23.10;60.00
38265;DHT22;24062;47.480;8.768;2023-08-31T01:47:27;23.10;60.00
38265;DHT22;24062;47.480;8.768;2023-08-31T01:49:54;23.10;60.10
38265;DHT22;24062;47.480;8.768;2023-08-31T01:52:21;23.10;60.10
38265;DHT22;24062;47.480;8.768;2023-08-31T01:54:48;23.10;60.10
38265;DHT22;24062;47.480;8.768;2023-08-31T01:57:17;23.10;60.10
38265;DHT22;24062;47.480;8.768;2023-08-31T01:59:44;23.10;60.10
38265;DHT22;24062;47.480;8.768;2023-08-31T02:02:10;23.10;60.00
38265;DHT22;24062;47.480;8.768;2023-08-31T02:04:37;23.10;60.10
38265;DHT22;24062;47.480;8.768;2023-08-31T02:07:04;23.00;60.00
38265;DHT22;24062;47.480;8.768;2023-08-31T02:09:31;23.00;60.10
38265;DHT22;24062;47.480;8.768;2023-08-31T02:11:58;23.00;60.20
38265;DHT22;24062;47.480;8.768;2023-08-31T02:14:26;23.00;60.00
38265;DHT22;24062;47.480;8.768;2023-08-31T02:16:53;23.00;60.10
38265;DHT22;24062;47.480;8.768;2023-08-31T02:19:20;23.00;60.10
38265;DHT22;24062;47.480;8.768;2023-08-31T02:21:47;23.00;60.10
38265;DHT22;24062;47.480;8.768;2023-08-31T02:24:14;23.00;60.10
38265;DHT22;24062;47.480;8.768;2023-08-31T02:26:41;23.00;60.20
38265;DHT22;24062;47.480;8.768;2023-08-31T02:29:08;23.00;60.20
38265;DHT22;24062;47.480;8.768;2023-08-31T02:31:36;23.00;60.10
38265;DHT22;24062;47.480;8.768;2023-08-31T02:34:04;23.00;60.10
38265;DHT22;24062;47.480;8.768;2023-08-31T02:36:31;23.00;60.20
38265;DHT22;24062;47.480;8.768;2023-08-31T02:38:58;22.90;60.20
38265;DHT22;24062;47.480;8.768;2023-08-31T02:41:24;23.00;60.20
38265;DHT22;24062;47.480;8.768;2023-08-31T02:43:52;23.00;60.20
38265;DHT22;24062;47.480;8.768;2023-08-31T02:46:19;22.90;60.10
38265;DHT22;24062;47.480;8.768;2023-08-31T02:48:47;22.90;60.20
38265;DHT22;24062;47.480;8.768;2023-08-31T02:51:14;22.90;60.20
38265;DHT22;24062;47.480;8.768;2023-08-31T02:53:41;22.90;60.20
38265;DHT22;24062;47.480;8.768;2023-08-31T02:56:08;22.90;60.20
38265;DHT22;24062;47.480;8.768;2023-08-31T02:58:35;22.90;60.40
38265;DHT22;24062;47.480;8.768;2023-08-31T03:01:08;23.00;60.70
38265;DHT22;24062;47.480;8.768;2023-08-31T03:03:37;23.10;60.80
38265;DHT22;24062;47.480;8.768;2023-08-31T03:06:07;23.10;60.70
38265;DHT22;24062;47.480;8.768;2023-08-31T03:08:34;23.10;60.80
38265;DHT22;24062;47.480;8.768;2023-08-31T03:11:02;23.10;60.50
38265;DHT22;24062;47.480;8.768;2023-08-31T03:13:29;23.20;60.50
38265;DHT22;24062;47.480;8.768;2023-08-31T03:15:56;23.20;60.40
38265;DHT22;24062;47.480;8.768;2023-08-31T03:18:23;23.20;60.30
38265;DHT22;24062;47.480;8.768;2023-08-31T03:20:50;23.20;60.20
38265;DHT22;24062;47.480;8.768;2023-08-31T03:23:18;23.20;60.20
38265;DHT22;24062;47.480;8.768;2023-08-31T03:25:45;23.20;60.20
38265;DHT22;24062;47.480;8.768;2023-08-31T03:28:12;23.30;60.30
38265;DHT22;24062;47.480;8.768;2023-08-31T03:30:39;23.30;60.20
38265;DHT22;24062;47.480;8.768;2023-08-31T03:33:06;23.30;60.10
38265;DHT22;24062;47.480;8.768;2023-08-31T03:35:34;23.30;60.10
38265;DHT22;24062;47.480;8.768;2023-08-31T03:38:00;23.30;60.00
38265;DHT22;24062;47.480;8.768;2023-08-31T03:40:29;23.40;60.00
38265;DHT22;24062;47.480;8.768;2023-08-31T03:42:56;23.40;60.00
38265;DHT22;24062;47.480;8.768;2023-08-31T03:45:23;23.40;60.00
38265;DHT22;24062;47.480;8.768;2023-08-31T03:47:50;23.40;60.00
38265;DHT22;24062;47.480;8.768;2023-08-31T03:50:17;23.40;60.00
38265;DHT22;24062;47.480;8.768;2023-08-31T03:52:44;23.40;60.00
38265;DHT22;24062;47.480;8.768;2023-08-31T03:55:11;23.40;59.90
38265;DHT22;24062;47.480;8.768;2023-08-31T03:57:39;23.40;59.90
38265;DHT22;24062;47.480;8.768;2023-08-31T04:00:07;23.40;59.90
38265;DHT22;24062;47.480;8.768;2023-08-31T04:02:38;23.40;59.90
38265;DHT22;24062;47.480;8.768;2023-08-31T04:05:05;23.40;59.90
38265;DHT22;24062;47.480;8.768;2023-08-31T04:07:34;23.40;59.90
38265;DHT22;24062;47.480;8.768;2023-08-31T04:10:01;23.40;59.90
38265;DHT22;24062;47.480;8.768;2023-08-31T04:12:29;23.40;59.90
38265;DHT22;24062;47.480;8.768;2023-08-31T04:14:57;23.40;60.00
38265;DHT22;24062;47.480;8.768;2023-08-31T04:17:24;23.40;59.90
38265;DHT22;24062;47.480;8.768;2023-08-31T04:19:51;23.50;60.00
38265;DHT22;24062;47.480;8.768;2023-08-31T04:22:18;23.40;59.90
38265;DHT22;24062;47.480;8.768;2023-08-31T04:24:45;23.40;59.90
38265;DHT22;24062;47.480;8.768;2023-08-31T04:27:12;23.50;60.00
38265;DHT22;24062;47.480;8.768;2023-08-31T04:29:39;23.40;59.90
38265;DHT22;24062;47.480;8.768;2023-08-31T04:32:08;23.40;60.00
38265;DHT22;24062;47.480;8.768;2023-08-31T04:34:34;23.50;60.00
38265;DHT22;24062;47.480;8.768;2023-08-31T04:37:02;23.50;60.00
38265;DHT22;24062;47.480;8.768;2023-08-31T04:39:29;23.50;60.00
38265;DHT22;24062;47.480;8.768;2023-08-31T04:41:56;23.40;60.00
38265;DHT22;24062;47.480;8.768;2023-08-31T04:44:23;23.40;60.00
38265;DHT22;24062;47.480;8.768;2023-08-31T04:46:50;23.50;60.10
38265;DHT22;24062;47.480;8.768;2023-08-31T04:49:18;23.50;60.10
38265;DHT22;24062;47.480;8.768;2023-08-31T04:51:45;23.50;60.20
38265;DHT22;24062;47.480;8.768;2023-08-31T04:54:12;23.40;60.10
38265;DHT22;24062;47.480;8.768;2023-08-31T04:56:39;23.50;60.20
38265;DHT22;24062;47.480;8.768;2023-08-31T04:59:06;23.50;60.20
38265;DHT22;24062;47.480;8.768;2023-08-31T05:01:33;23.50;60.20
38265;DHT22;24062;47.480;8.768;2023-08-31T05:04:00;23.50;60.20
38265;DHT22;24062;47.480;8.768;2023-08-31T05:06:29;23.50;60.20
38265;DHT22;24062;47.480;8.768;2023-08-31T05:08:56;23.40;60.20
38265;DHT22;24062;47.480;8.768;2023-08-31T05:11:23;23.50;60.30
38265;DHT22;24062;47.480;8.768;2023-08-31T05:13:50;23.50;60.30
38265;DHT22;24062;47.480;8.768;2023-08-31T05:16:17;23.40;60.20
38265;DHT22;24062;47.480;8.768;2023-08-31T05:18:44;23.50;60.20
38265;DHT22;24062;47.480;8.768;2023-08-31T05:21:11;23.50;60.20
38265;DHT22;24062;47.480;8.768;2023-08-31T05:23:39;23.50;60.30
38265;DHT22;24062;47.480;8.768;2023-08-31T05:26:06;23.50;60.20
38265;DHT22;24062;47.480;8.768;2023-08-31T05:28:33;23.50;60.20
38265;DHT22;24062;47.480;8.768;2023-08-31T05:31:01;23.50;60.30
38265;DHT22;24062;47.480;8.768;2023-08-31T05:33:29;23.50;60.40
38265;DHT22;24062;47.480;8.768;2023-08-31T05:36:00;23.50;60.50
38265;DHT22;24062;47.480;8.768;2023-08-31T05:38:29;23.50;60.60
38265;DHT22;24062;47.480;8.768;2023-08-31T05:41:05;23.50;60.70
38265;DHT22;24062;47.480;8.768;2023-08-31T05:43:33;23.50;60.80
38265;DHT22;24062;47.480;8.768;2023-08-31T05:46:00;23.50;60.90
38265;DHT22;24062;47.480;8.768;2023-08-31T05:48:27;23.50;60.90
38265;DHT22;24062;47.480;8.768;2023-08-31T05:50:54;23.50;60.90
38265;DHT22;24062;47.480;8.768;2023-08-31T05:53:21;23.50;61.00
38265;DHT22;24062;47.480;8.768;2023-08-31T05:55:48;23.50;61.00
38265;DHT22;24062;47.480;8.768;2023-08-31T05:58:16;23.50;61.00
38265;DHT22;24062;47.480;8.768;2023-08-31T06:00:43;23.50;60.90
38265;DHT22;24062;47.480;8.768;2023-08-31T06:03:10;23.60;60.90
38265;DHT22;24062;47.480;8.768;2023-08-31T06:05:37;23.60;61.00
38265;DHT22;24062;47.480;8.768;2023-08-31T06:08:05;23.60;60.90
38265;DHT22;24062;47.480;8.768;2023-08-31T06:10:32;23.50;60.80
38265;DHT22;24062;47.480;8.768;2023-08-31T06:12:59;23.60;60.80
38265;DHT22;24062;47.480;8.768;2023-08-31T06:15:27;23.60;60.80
38265;DHT22;24062;47.480;8.768;2023-08-31T06:17:54;23.60;60.80
38265;DHT22;24062;47.480;8.768;2023-08-31T06:20:21;23.60;60.70
38265;DHT22;24062;47.480;8.768;2023-08-31T06:22:49;23.60;60.70
38265;DHT22;24062;47.480;8.768;2023-08-31T06:25:16;23.70;60.60
38265;DHT22;24062;47.480;8.768;2023-08-31T06:27:44;23.90;60.20
38265;DHT22;24062;47.480;8.768;2023-08-31T06:30:11;23.80;59.80
38265;DHT22;24062;47.480;8.768;2023-08-31T06:32:43;23.80;59.90
38265;DHT22;24062;47.480;8.768;2023-08-31T06:35:10;23.70;60.00
38265;DHT22;24062;47.480;8.768;2023-08-31T06:37:38;23.70;60.20
38265;DHT22;24062;47.480;8.768;2023-08-31T06:40:06;23.70;60.20
38265;DHT22;24062;47.480;8.768;2023-08-31T06:42:33;23.60;60.10
38265;DHT22;24062;47.480;8.768;2023-08-31T06:45:01;23.70;60.20
38265;DHT22;24062;47.480;8.768;2023-08-31T06:47:28;23.60;60.00
38265;DHT22;24062;47.480;8.768;2023-08-31T06:49:56;23.60;60.10
38265;DHT22;24062;47.480;8.768;2023-08-31T06:52:24;23.60;60.10
38265;DHT22;24062;47.480;8.768;2023-08-31T06:54:51;23.60;60.10
38265;DHT22;24062;47.480;8.768;2023-08-31T06:57:20;23.60;60.10
38265;DHT22;24062;47.480;8.768;2023-08-31T06:59:47;23.60;60.10
38265;DHT22;24062;47.480;8.768;2023-08-31T07:02:15;23.60;60.00
38265;DHT22;24062;47.480;8.768;2023-08-31T07:04:42;23.70;60.10
38265;DHT22;24062;47.480;8.768;2023-08-31T07:07:11;23.60;60.00
38265;DHT22;24062;47.480;8.768;2023-08-31T07:09:41;23.60;60.00
38265;DHT22;24062;47.480;8.768;2023-08-31T07:12:08;23.70;60.10
38265;DHT22;24062;47.480;8.768;2023-08-31T07:14:35;23.60;59.90
38265;DHT22;24062;47.480;8.768;2023-08-31T07:17:02;23.70;60.00
38265;DHT22;24062;47.480;8.768;2023-08-31T07:19:29;23.70;60.00
38265;DHT22;24062;47.480;8.768;2023-08-31T07:21:57;23.70;60.00
38265;DHT22;24062;47.480;8.768;2023-08-31T07:24:26;23.70;59.80
38265;DHT22;24062;47.480;8.768;2023-08-31T07:26:53;23.80;59.80
38265;DHT22;24062;47.480;8.768;2023-08-31T07:29:20;23.80;59.60
38265;DHT22;24062;47.480;8.768;2023-08-31T07:31:47;23.80;59.60
38265;DHT22;24062;47.480;8.768;2023-08-31T07:34:14;23.90;59.60
38265;DHT22;24062;47.480;8.768;2023-08-31T07:36:41;23.80;59.60
38265;DHT22;24062;47.480;8.768;2023-08-31T07:39:08;23.80;60.20
38265;DHT22;24062;47.480;8.768;2023-08-31T07:41:36;23.90;59.60
38265;DHT22;24062;47.480;8.768;2023-08-31T07:44:03;23.90;59.50
38265;DHT22;24062;47.480;8.768;2023-08-31T07:46:30;23.90;59.50
38265;DHT22;24062;47.480;8.768;2023-08-31T07:48:57;24.00;59.50
38265;DHT22;24062;47.480;8.768;2023-08-31T07:51:24;24.00;59.50
38265;DHT22;24062;47.480;8.768;2023-08-31T07:53:51;24.00;59.40
38265;DHT22;24062;47.480;8.768;2023-08-31T07:56:18;24.50;59.20
38265;DHT22;24062;47.480;8.768;2023-08-31T07:58:47;25.20;57.70
38265;DHT22;24062;47.480;8.768;2023-08-31T08:01:14;25.00;57.60
38265;DHT22;24062;47.480;8.768;2023-08-31T08:03:40;24.80;57.90
38265;DHT22;24062;47.480;8.768;2023-08-31T08:06:07;24.70;58.10
38265;DHT22;24062;47.480;8.768;2023-08-31T08:08:35;24.60;58.30
38265;DHT22;24062;47.480;8.768;2023-08-31T08:11:04;24.50;58.50
38265;DHT22;24062;47.480;8.768;2023-08-31T08:13:31;24.40;58.60
38265;DHT22;24062;47.480;8.768;2023-08-31T08:15:59;24.40;58.70
38265;DHT22;24062;47.480;8.768;2023-08-31T08:18:26;24.30;58.80
38265;DHT22;24062;47.480;8.768;2023-08-31T08:20:53;24.30;58.90
38265;DHT22;24062;47.480;8.768;2023-08-31T08:23:20;24.20;58.80
38265;DHT22;24062;47.480;8.768;2023-08-31T08:25:47;24.20;59.00
38265;DHT22;24062;47.480;8.768;2023-08-31T08:28:14;24.20;59.00
38265;DHT22;24062;47.480;8.768;2023-08-31T08:30:41;24.20;59.00
38265;DHT22;24062;47.480;8.768;2023-08-31T08:33:09;24.20;59.00
38265;DHT22;24062;47.480;8.768;2023-08-31T08:35:37;24.20;59.00
38265;DHT22;24062;47.480;8.768;2023-08-31T08:38:04;24.20;59.00
38265;DHT22;24062;47.480;8.768;2023-08-31T08:40:32;24.20;59.00
38265;DHT22;24062;47.480;8.768;2023-08-31T08:43:00;24.20;59.00
38265;DHT22;24062;47.480;8.768;2023-08-31T08:45:34;24.20;59.10
38265;DHT22;24062;47.480;8.768;2023-08-31T08:48:03;24.10;59.00
38265;DHT22;24062;47.480;8.768;2023-08-31T08:50:33;24.10;59.00
38265;DHT22;24062;47.480;8.768;2023-08-31T08:53:00;24.10;59.10
38265;DHT22;24062;47.480;8.768;2023-08-31T08:55:27;24.10;59.10
38265;DHT22;24062;47.480;8.768;2023-08-31T08:57:57;24.10;59.10
38265;DHT22;24062;47.480;8.768;2023-08-31T09:00:24;24.10;59.10
38265;DHT22;24062;47.480;8.768;2023-08-31T09:02:52;24.10;59.10
38265;DHT22;24062;47.480;8.768;2023-08-31T09:05:19;24.20;59.10
38265;DHT22;24062;47.480;8.768;2023-08-31T09:08:05;24.20;59.00
38265;DHT22;24062;47.480;8.768;2023-08-31T09:10:36;24.30;59.00
38265;DHT22;24062;47.480;8.768;2023-08-31T09:13:07;24.40;58.90
38265;DHT22;24062;47.480;8.768;2023-08-31T09:15:40;24.50;58.60
38265;DHT22;24062;47.480;8.768;2023-08-31T09:18:08;24.60;58.40
38265;DHT22;24062;47.480;8.768;2023-08-31T09:20:47;24.70;58.20
38265;DHT22;24062;47.480;8.768;2023-08-31T09:23:16;24.80;58.10
38265;DHT22;24062;47.480;8.768;2023-08-31T09:25:45;24.80;57.90
38265;DHT22;24062;47.480;8.768;2023-08-31T09:28:13;24.80;57.70
38265;DHT22;24062;47.480;8.768;2023-08-31T09:30:40;24.80;57.70
38265;DHT22;24062;47.480;8.768;2023-08-31T09:33:08;24.80;57.60
38265;DHT22;24062;47.480;8.768;2023-08-31T09:35:39;24.80;57.60
38265;DHT22;24062;47.480;8.768;2023-08-31T09:38:10;24.80;57.60
38265;DHT22;24062;47.480;8.768;2023-08-31T09:40:38;24.70;57.60
38265;DHT22;24062;47.480;8.768;2023-08-31T09:43:05;24.70;57.70
38265;DHT22;24062;47.480;8.768;2023-08-31T09:45:33;24.70;57.80
38265;DHT22;24062;47.480;8.768;2023-08-31T09:48:03;24.60;57.60
38265;DHT22;24062;47.480;8.768;2023-08-31T09:50:32;24.60;57.60
38265;DHT22;24062;47.480;8.768;2023-08-31T09:53:04;24.60;57.60
38265;DHT22;24062;47.480;8.768;2023-08-31T09:55:32;24.60;57.60
38265;DHT22;24062;47.480;8.768;2023-08-31T09:58:01;24.60;57.50
38265;DHT22;24062;47.480;8.768;2023-08-31T10:00:30;24.60;57.50
38265;DHT22;24062;47.480;8.768;2023-08-31T10:03:01;24.60;57.60
38265;DHT22;24062;47.480;8.768;2023-08-31T10:05:29;24.60;57.60
38265;DHT22;24062;47.480;8.768;2023-08-31T10:07:57;24.60;57.50
38265;DHT22;24062;47.480;8.768;2023-08-31T10:10:24;24.60;57.40
38265;DHT22;24062;47.480;8.768;2023-08-31T10:12:51;24.60;57.40
38265;DHT22;24062;47.480;8.768;2023-08-31T10:15:20;24.60;57.40
38265;DHT22;24062;47.480;8.768;2023-08-31T10:17:47;24.60;57.30
38265;DHT22;24062;47.480;8.768;2023-08-31T10:20:16;24.70;57.30
38265;DHT22;24062;47.480;8.768;2023-08-31T10:22:43;24.70;57.30
38265;DHT22;24062;47.480;8.768;2023-08-31T10:25:10;24.70;57.20
38265;DHT22;24062;47.480;8.768;2023-08-31T10:27:39;24.70;57.10
38265;DHT22;24062;47.480;8.768;2023-08-31T10:30:26;24.70;57.10
38265;DHT22;24062;47.480;8.768;2023-08-31T10:33:22;24.70;57.20
38265;DHT22;24062;47.480;8.768;2023-08-31T10:35:51;24.60;57.20
38265;DHT22;24062;47.480;8.768;2023-08-31T10:38:24;24.60;57.30
38265;DHT22;24062;47.480;8.768;2023-08-31T10:41:20;24.60;57.40
38265;DHT22;24062;47.480;8.768;2023-08-31T10:43:51;24.60;57.50
38265;DHT22;24062;47.480;8.768;2023-08-31T10:46:25;24.60;57.50
38265;DHT22;24062;47.480;8.768;2023-08-31T10:48:54;24.60;57.50
38265;DHT22;24062;47.480;8.768;2023-08-31T10:51:23;24.60;57.50
38265;DHT22;24062;47.480;8.768;2023-08-31T10:53:50;24.70;57.60
38265;DHT22;24062;47.480;8.768;2023-08-31T10:56:17;24.60;57.60
38265;DHT22;24062;47.480;8.768;2023-08-31T10:58:57;24.70;57.70
38265;DHT22;24062;47.480;8.768;2023-08-31T11:01:57;24.70;57.60
38265;DHT22;24062;47.480;8.768;2023-08-31T11:04:26;24.70;57.60
38265;DHT22;24062;47.480;8.768;2023-08-31T11:07:13;24.70;57.60
38265;DHT22;24062;47.480;8.768;2023-08-31T11:09:40;24.70;57.50
38265;DHT22;24062;47.480;8.768;2023-08-31T11:12:08;24.70;57.60
38265;DHT22;24062;47.480;8.768;2023-08-31T11:14:35;24.70;57.70
38265;DHT22;24062;47.480;8.768;2023-08-31T11:17:04;24.70;57.70
38265;DHT22;24062;47.480;8.768;2023-08-31T11:19:32;24.70;57.70
38265;DHT22;24062;47.480;8.768;2023-08-31T11:22:00;24.70;57.70
38265;DHT22;24062;47.480;8.768;2023-08-31T11:24:28;24.70;57.80
38265;DHT22;24062;47.480;8.768;2023-08-31T11:26:55;24.70;57.80
38265;DHT22;24062;47.480;8.768;2023-08-31T11:29:22;24.90;58.10
38265;DHT22;24062;47.480;8.768;2023-08-31T11:31:49;24.80;58.00
38265;DHT22;24062;47.480;8.768;2023-08-31T11:34:18;24.80;58.10
38265;DHT22;24062;47.480;8.768;2023-08-31T11:36:46;24.80;58.00
38265;DHT22;24062;47.480;8.768;2023-08-31T11:39:13;24.80;57.90
38265;DHT22;24062;47.480;8.768;2023-08-31T11:41:42;24.80;57.90
38265;DHT22;24062;47.480;8.768;2023-08-31T11:44:09;24.90;57.90
38265;DHT22;24062;47.480;8.768;2023-08-31T11:46:37;24.90;57.80
38265;DHT22;24062;47.480;8.768;2023-08-31T11:49:05;24.90;57.80
38265;DHT22;24062;47.480;8.768;2023-08-31T11:51:34;24.90;57.80
38265;DHT22;24062;47.480;8.768;2023-08-31T11:54:01;25.00;57.90
38265;DHT22;24062;47.480;8.768;2023-08-31T11:56:38;25.00;57.90
38265;DHT22;24062;47.480;8.768;2023-08-31T11:59:10;24.90;57.80
38265;DHT22;24062;47.480;8.768;2023-08-31T12:01:39;25.00;57.80
38265;DHT22;24062;47.480;8.768;2023-08-31T12:04:11;25.00;57.80
38265;DHT22;24062;47.480;8.768;2023-08-31T12:06:40;25.00;57.80
38265;DHT22;24062;47.480;8.768;2023-08-31T12:09:07;25.00;57.80
38265;DHT22;24062;47.480;8.768;2023-08-31T12:11:35;25.00;57.80
38265;DHT22;24062;47.480;8.768;2023-08-31T12:14:03;25.00;57.80
38265;DHT22;24062;47.480;8.768;2023-08-31T12:16:33;25.00;57.80
38265;DHT22;24062;47.480;8.768;2023-08-31T12:19:04;25.00;57.80
38265;DHT22;24062;47.480;8.768;2023-08-31T12:21:31;25.00;57.80
38265;DHT22;24062;47.480;8.768;2023-08-31T12:24:00;25.00;57.90
38265;DHT22;24062;47.480;8.768;2023-08-31T12:26:29;24.90;57.80
38265;DHT22;24062;47.480;8.768;2023-08-31T12:28:56;24.90;57.80
38265;DHT22;24062;47.480;8.768;2023-08-31T12:31:23;25.00;57.80
38265;DHT22;24062;47.480;8.768;2023-08-31T12:33:50;24.90;57.70
38265;DHT22;24062;47.480;8.768;2023-08-31T12:36:17;25.00;57.80
38265;DHT22;24062;47.480;8.768;2023-08-31T12:38:44;25.00;57.80
38265;DHT22;24062;47.480;8.768;2023-08-31T12:41:12;25.00;57.80
38265;DHT22;24062;47.480;8.768;2023-08-31T12:43:39;25.00;57.80
38265;DHT22;24062;47.480;8.768;2023-08-31T12:46:06;25.00;57.80
38265;DHT22;24062;47.480;8.768;2023-08-31T12:48:35;25.00;57.70
38265;DHT22;24062;47.480;8.768;2023-08-31T12:51:02;25.00;58.20
38265;DHT22;24062;47.480;8.768;2023-08-31T12:53:29;25.10;57.60
38265;DHT22;24062;47.480;8.768;2023-08-31T12:55:56;25.10;57.50
38265;DHT22;24062;47.480;8.768;2023-08-31T12:58:24;25.10;57.40
38265;DHT22;24062;47.480;8.768;2023-08-31T13:00:51;25.10;57.90
38265;DHT22;24062;47.480;8.768;2023-08-31T13:03:19;25.20;57.40
38265;DHT22;24062;47.480;8.768;2023-08-31T13:05:46;25.20;57.60
38265;DHT22;24062;47.480;8.768;2023-08-31T13:08:14;25.20;57.30
38265;DHT22;24062;47.480;8.768;2023-08-31T13:10:41;25.20;57.30
38265;DHT22;24062;47.480;8.768;2023-08-31T13:13:08;25.20;57.30
38265;DHT22;24062;47.480;8.768;2023-08-31T13:15:36;25.20;57.30
38265;DHT22;24062;47.480;8.768;2023-08-31T13:18:04;25.20;57.20
38265;DHT22;24062;47.480;8.768;2023-08-31T13:20:31;25.20;57.20
38265;DHT22;24062;47.480;8.768;2023-08-31T13:22:58;25.20;57.10
38265;DHT22;24062;47.480;8.768;2023-08-31T13:25:25;25.30;57.10
38265;DHT22;24062;47.480;8.768;2023-08-31T13:27:52;25.30;57.10
38265;DHT22;24062;47.480;8.768;2023-08-31T13:30:19;25.30;57.10
38265;DHT22;24062;47.480;8.768;2023-08-31T13:32:47;25.30;57.00
38265;DHT22;24062;47.480;8.768;2023-08-31T13:35:14;25.30;57.00
38265;DHT22;24062;47.480;8.768;2023-08-31T13:37:41;25.30;57.00
38265;DHT22;24062;47.480;8.768;2023-08-31T13:40:08;25.30;56.90
38265;DHT22;24062;47.480;8.768;2023-08-31T13:42:36;25.30;56.90
38265;DHT22;24062;47.480;8.768;2023-08-31T13:45:06;25.30;56.90
38265;DHT22;24062;47.480;8.768;2023-08-31T13:47:33;25.40;56.90
38265;DHT22;24062;47.480;8.768;2023-08-31T13:50:02;25.40;56.90
38265;DHT22;24062;47.480;8.768;2023-08-31T13:52:29;25.40;56.90
38265;DHT22;24062;47.480;8.768;2023-08-31T13:54:56;25.30;56.80
38265;DHT22;24062;47.480;8.768;2023-08-31T13:57:23;25.40;56.80
38265;DHT22;24062;47.480;8.768;2023-08-31T13:59:50;25.40;56.80
38265;DHT22;24062;47.480;8.768;2023-08-31T14:02:18;25.30;56.80
38265;DHT22;24062;47.480;8.768;2023-08-31T14:04:45;25.30;56.90
38265;DHT22;24062;47.480;8.768;2023-08-31T14:07:13;25.30;56.90
38265;DHT22;24062;47.480;8.768;2023-08-31T14:09:40;25.30;56.90
38265;DHT22;24062;47.480;8.768;2023-08-31T14:12:07;25.20;56.90
38265;DHT22;24062;47.480;8.768;2023-08-31T14:14:34;25.20;56.90
38265;DHT22;24062;47.480;8.768;2023-08-31T14:17:02;25.20;56.90
38265;DHT22;24062;47.480;8.768;2023-08-31T14:19:29;25.20;56.90
38265;DHT22;24062;47.480;8.768;2023-08-31T14:21:56;25.20;56.90
38265;DHT22;24062;47.480;8.768;2023-08-31T14:24:24;25.20;56.90
38265;DHT22;24062;47.480;8.768;2023-08-31T14:26:51;25.20;56.90
38265;DHT22;24062;47.480;8.768;2023-08-31T14:29:18;25.20;56.90
38265;DHT22;24062;47.480;8.768;2023-08-31T14:31:45;25.20;56.90
38265;DHT22;24062;47.480;8.768;2023-08-31T14:34:12;25.20;56.90
38265;DHT22;24062;47.480;8.768;2023-08-31T14:36:39;25.20;56.90
38265;DHT22;24062;47.480;8.768;2023-08-31T14:39:06;25.20;56.80
38265;DHT22;24062;47.480;8.768;2023-08-31T14:41:34;25.20;56.90
38265;DHT22;24062;47.480;8.768;2023-08-31T14:44:01;25.20;56.80
38265;DHT22;24062;47.480;8.768;2023-08-31T14:46:28;25.20;56.80
38265;DHT22;24062;47.480;8.768;2023-08-31T14:48:55;25.20;56.80
38265;DHT22;24062;47.480;8.768;2023-08-31T14:51:22;25.20;56.80
38265;DHT22;24062;47.480;8.768;2023-08-31T14:53:48;25.20;56.70
38265;DHT22;24062;47.480;8.768;2023-08-31T14:56:15;25.20;56.80
38265;DHT22;24062;47.480;8.768;2023-08-31T14:58:44;25.10;56.70
38265;DHT22;24062;47.480;8.768;2023-08-31T15:01:11;25.20;56.70
38265;DHT22;24062;47.480;8.768;2023-08-31T15:03:38;25.10;56.80
38265;DHT22;24062;47.480;8.768;2023-08-31T15:06:05;25.10;56.90
38265;DHT22;24062;47.480;8.768;2023-08-31T15:08:36;25.10;56.90
38265;DHT22;24062;47.480;8.768;2023-08-31T15:11:03;25.10;56.90
38265;DHT22;24062;47.480;8.768;2023-08-31T15:13:30;25.10;56.90
38265;DHT22;24062;47.480;8.768;2023-08-31T15:15:59;25.10;56.90
38265;DHT22;24062;47.480;8.768;2023-08-31T15:18:26;25.10;57.00
38265;DHT22;24062;47.480;8.768;2023-08-31T15:20:53;25.10;57.00
38265;DHT22;24062;47.480;8.768;2023-08-31T15:23:20;25.10;57.00
38265;DHT22;24062;47.480;8.768;2023-08-31T15:25:47;25.10;57.00
38265;DHT22;24062;47.480;8.768;2023-08-31T15:28:14;25.10;57.00
38265;DHT22;24062;47.480;8.768;2023-08-31T15:30:41;25.00;56.90
38265;DHT22;24062;47.480;8.768;2023-08-31T15:33:10;25.00;56.90
38265;DHT22;24062;47.480;8.768;2023-08-31T15:35:37;25.00;57.00